createdAt,value
2018-09-26T00:00:24.148Z,99855.81
2018-09-26T00:00:55.750Z,99856.67
2018-09-26T00:01:27.350Z,99860.08
2018-09-26T00:01:58.944Z,99861.38
2018-09-26T00:02:30.546Z,99861.38
2018-09-26T00:03:02.158Z,99860.95
2018-09-26T00:03:33.748Z,99863.08
2018-09-26T00:04:05.383Z,99861.37
2018-09-26T00:04:36.986Z,99864.36
2018-09-26T00:05:08.595Z,99865.64
2018-09-26T00:05:40.174Z,99862.22
2018-09-26T00:06:11.768Z,99861.36
2018-09-26T00:06:43.361Z,99858.80
2018-09-26T00:07:14.952Z,99855.39
2018-09-26T00:07:46.558Z,99856.66
2018-09-26T00:08:18.194Z,99853.27
2018-09-26T00:08:49.789Z,99849.85
2018-09-26T00:09:21.380Z,99849.00
2018-09-26T00:09:53.014Z,99854.11
2018-09-26T00:10:24.609Z,99843.88
2018-09-26T00:10:56.196Z,99846.41
2018-09-26T00:11:27.780Z,99848.98
2018-09-26T00:11:59.383Z,99846.85
2018-09-26T00:12:30.964Z,99850.69
2018-09-26T00:13:02.564Z,99850.27
2018-09-26T00:13:34.156Z,99855.39
2018-09-26T00:14:05.758Z,99851.98
2018-09-26T00:14:37.362Z,99857.53
2018-09-26T00:15:08.981Z,99857.09
2018-09-26T00:15:40.572Z,99854.09
2018-09-26T00:16:12.178Z,99854.09
2018-09-26T00:16:43.772Z,99849.40
2018-09-26T00:17:15.378Z,99856.64
2018-09-26T00:17:46.968Z,99853.23
2018-09-26T00:18:18.574Z,99854.09
2018-09-26T00:18:50.154Z,99851.12
2018-09-26T00:19:21.744Z,99847.71
2018-09-26T00:19:53.345Z,99851.55
2018-09-26T00:20:24.970Z,99851.12
2018-09-26T00:20:56.563Z,99849.84
2018-09-26T00:21:28.152Z,99854.52
2018-09-26T00:21:59.754Z,99851.53
2018-09-26T00:22:31.338Z,99850.25
2018-09-26T00:23:02.924Z,99853.67
2018-09-26T00:23:34.525Z,99847.27
2018-09-26T00:24:06.130Z,99848.98
2018-09-26T00:24:37.720Z,99851.98
2018-09-26T00:25:09.343Z,99850.27
2018-09-26T00:25:40.950Z,99848.12
2018-09-26T00:26:12.545Z,99844.72
2018-09-26T00:26:44.133Z,99851.12
2018-09-26T00:27:15.746Z,99847.27
2018-09-26T00:27:47.350Z,99846.83
2018-09-26T00:28:18.955Z,99844.29
2018-09-26T00:28:50.561Z,99843.41
2018-09-26T00:29:22.173Z,99844.72
2018-09-26T00:29:53.760Z,99841.73
2018-09-26T00:30:25.391Z,99840.87
2018-09-26T00:30:56.991Z,99842.15
2018-09-26T00:31:28.589Z,99840.01
2018-09-26T00:32:00.194Z,99839.56
2018-09-26T00:32:31.774Z,99842.98
2018-09-26T00:33:03.375Z,99836.59
2018-09-26T00:33:34.969Z,99847.69
2018-09-26T00:34:06.578Z,99840.01
2018-09-26T00:34:38.163Z,99842.56
2018-09-26T00:35:09.756Z,99839.14
2018-09-26T00:35:41.361Z,99844.27
2018-09-26T00:36:13.109Z,99843.41
2018-09-26T00:36:44.564Z,99844.25
2018-09-26T00:37:16.167Z,99843.83
2018-09-26T00:37:47.800Z,99846.81
2018-09-26T00:38:19.386Z,99846.81
2018-09-26T00:38:51.004Z,99848.12
2018-09-26T00:39:22.612Z,99847.70
2018-09-26T00:39:54.216Z,99847.27
2018-09-26T00:40:25.813Z,99844.70
2018-09-26T00:40:57.424Z,99842.97
2018-09-26T00:41:29.026Z,99848.98
2018-09-26T00:42:00.617Z,99846.41
2018-09-26T00:42:32.208Z,99851.09
2018-09-26T00:43:03.784Z,99852.36
2018-09-26T00:43:35.386Z,99856.21
2018-09-26T00:44:06.990Z,99858.34
2018-09-26T00:44:38.579Z,99853.67
2018-09-26T00:45:10.155Z,99851.98
2018-09-26T00:45:41.749Z,99857.53
2018-09-26T00:46:13.340Z,99858.37
2018-09-26T00:46:44.946Z,99855.81
2018-09-26T00:47:16.546Z,99857.53
2018-09-26T00:47:48.142Z,99859.64
2018-09-26T00:48:19.736Z,99856.23
2018-09-26T00:48:51.345Z,99856.67
2018-09-26T00:49:22.928Z,99857.95
2018-09-26T00:49:54.534Z,99855.41
2018-09-26T00:50:26.283Z,99849.43
2018-09-26T00:50:57.888Z,99852.43
2018-09-26T00:51:29.491Z,99851.98
2018-09-26T00:52:01.089Z,99848.56
2018-09-26T00:52:32.680Z,99855.41
2018-09-26T00:53:04.272Z,99850.72
2018-09-26T00:53:35.879Z,99850.72
2018-09-26T00:54:07.488Z,99844.73
2018-09-26T00:54:39.089Z,99851.98
2018-09-26T00:55:10.688Z,99844.73
2018-09-26T00:55:42.491Z,99845.59
2018-09-26T00:56:14.081Z,99851.14
2018-09-26T00:56:45.672Z,99850.72
2018-09-26T00:57:17.250Z,99848.58
2018-09-26T00:57:48.837Z,99850.73
2018-09-26T00:58:20.431Z,99849.02
2018-09-26T00:58:52.031Z,99847.73
2018-09-26T00:59:23.620Z,99848.59
2018-09-26T00:59:55.222Z,99846.45
2018-09-26T01:00:26.809Z,99847.28
2018-09-26T01:00:58.431Z,99846.00
2018-09-26T01:01:30.009Z,99845.15
2018-09-26T01:02:01.597Z,99845.15
2018-09-26T01:02:33.169Z,99844.72
2018-09-26T01:03:04.761Z,99849.00
2018-09-26T01:03:36.357Z,99851.13
2018-09-26T01:04:07.948Z,99848.13
2018-09-26T01:04:39.525Z,99851.54
2018-09-26T01:05:11.093Z,99844.31
2018-09-26T01:05:42.692Z,99825.94
2018-09-26T01:06:14.285Z,99845.15
2018-09-26T01:06:45.878Z,99848.56
2018-09-26T01:07:17.473Z,99839.59
2018-09-26T01:07:49.046Z,99850.70
2018-09-26T01:08:20.613Z,99841.73
2018-09-26T01:08:52.204Z,99843.42
2018-09-26T01:09:23.773Z,99839.59
2018-09-26T01:09:55.364Z,99839.60
2018-09-26T01:10:26.957Z,99839.60
2018-09-26T01:10:58.532Z,99839.17
2018-09-26T01:11:30.124Z,99842.57
2018-09-26T01:12:01.689Z,99835.75
2018-09-26T01:12:33.285Z,99831.47
2018-09-26T01:13:04.862Z,99833.59
2018-09-26T01:13:36.448Z,99832.34
2018-09-26T01:14:08.021Z,99832.77
2018-09-26T01:14:39.589Z,99829.34
2018-09-26T01:15:11.191Z,99828.91
2018-09-26T01:15:42.794Z,99825.94
2018-09-26T01:16:14.413Z,99828.07
2018-09-26T01:16:46.014Z,99830.63
2018-09-26T01:17:17.605Z,99829.34
2018-09-26T01:17:49.192Z,99821.23
2018-09-26T01:18:20.843Z,99827.22
2018-09-26T01:18:52.425Z,99828.06
2018-09-26T01:19:24.020Z,99830.20
2018-09-26T01:19:55.592Z,99824.64
2018-09-26T01:20:27.185Z,99829.77
2018-09-26T01:20:58.781Z,99825.08
2018-09-26T01:21:30.401Z,99831.91
2018-09-26T01:22:01.996Z,99825.94
2018-09-26T01:22:33.569Z,99822.95
2018-09-26T01:23:05.136Z,99822.11
2018-09-26T01:23:36.704Z,99820.81
2018-09-26T01:24:08.273Z,99822.95
2018-09-26T01:24:39.862Z,99817.81
2018-09-26T01:25:11.456Z,99821.22
2018-09-26T01:25:43.049Z,99816.97
2018-09-26T01:26:14.648Z,99819.52
2018-09-26T01:26:46.217Z,99825.08
2018-09-26T01:27:17.789Z,99825.50
2018-09-26T01:27:49.372Z,99827.20
2018-09-26T01:28:20.947Z,99827.20
2018-09-26T01:28:52.517Z,99825.92
2018-09-26T01:29:24.121Z,99829.34
2018-09-26T01:29:55.717Z,99828.05
2018-09-26T01:30:27.313Z,99837.86
2018-09-26T01:30:58.905Z,99837.01
2018-09-26T01:31:30.534Z,99839.60
2018-09-26T01:32:02.124Z,99836.61
2018-09-26T01:32:33.726Z,99837.45
2018-09-26T01:33:05.316Z,99840.42
2018-09-26T01:33:36.922Z,99837.00
2018-09-26T01:34:08.527Z,99836.59
2018-09-26T01:34:40.116Z,99839.53
2018-09-26T01:35:11.708Z,99833.56
2018-09-26T01:35:43.356Z,99841.20
2018-09-26T01:36:14.948Z,99833.97
2018-09-26T01:36:46.584Z,99832.27
2018-09-26T01:37:18.186Z,99830.98
2018-09-26T01:37:49.777Z,99837.35
2018-09-26T01:38:21.368Z,99831.84
2018-09-26T01:38:52.960Z,99833.97
2018-09-26T01:39:24.563Z,99836.95
2018-09-26T01:39:56.161Z,99835.67
2018-09-26T01:40:27.738Z,99828.42
2018-09-26T01:40:59.332Z,99831.83
2018-09-26T01:41:31.013Z,99832.67
2018-09-26T01:42:02.583Z,99827.98
2018-09-26T01:42:34.171Z,99826.70
2018-09-26T01:43:05.775Z,99824.13
2018-09-26T01:43:37.387Z,99828.41
2018-09-26T01:44:08.987Z,99830.97
2018-09-26T01:44:40.590Z,99829.27
2018-09-26T01:45:12.198Z,99831.82
2018-09-26T01:45:43.806Z,99836.94
2018-09-26T01:46:15.413Z,99837.79
2018-09-26T01:46:47.138Z,99838.63
2018-09-26T01:47:18.743Z,99836.06
2018-09-26T01:47:50.322Z,99827.95
2018-09-26T01:48:21.930Z,99835.23
2018-09-26T01:48:53.539Z,99834.78
2018-09-26T01:49:25.119Z,99830.09
2018-09-26T01:49:56.722Z,99826.23
2018-09-26T01:50:28.326Z,99833.94
2018-09-26T01:50:59.931Z,99829.66
2018-09-26T01:51:31.544Z,99827.11
2018-09-26T01:52:03.164Z,99835.21
2018-09-26T01:52:34.767Z,99827.11
2018-09-26T01:53:06.356Z,99825.39
2018-09-26T01:53:37.957Z,99831.34
2018-09-26T01:54:09.548Z,99822.42
2018-09-26T01:54:41.139Z,99824.98
2018-09-26T01:55:12.728Z,99825.37
2018-09-26T01:55:44.321Z,99824.97
2018-09-26T01:56:15.913Z,99821.13
2018-09-26T01:56:47.514Z,99824.52
2018-09-26T01:57:19.136Z,99831.34
2018-09-26T01:57:50.739Z,99823.70
2018-09-26T01:58:22.350Z,99826.67
2018-09-26T01:58:53.935Z,99828.80
2018-09-26T01:59:25.547Z,99825.41
2018-09-26T01:59:57.150Z,99827.55
2018-09-26T02:00:28.755Z,99824.98
2018-09-26T02:01:00.362Z,99833.52
2018-09-26T02:01:31.972Z,99831.36
2018-09-26T02:02:03.700Z,99831.32
2018-09-26T02:02:35.310Z,99836.80
2018-09-26T02:03:06.954Z,99837.62
2018-09-26T02:03:38.558Z,99839.74
2018-09-26T02:04:10.172Z,99838.03
2018-09-26T02:04:41.782Z,99838.02
2018-09-26T02:05:13.378Z,99838.03
2018-09-26T02:05:44.972Z,99836.31
2018-09-26T02:06:16.569Z,99835.91
2018-09-26T02:06:48.212Z,99833.37
2018-09-26T02:07:19.804Z,99832.51
2018-09-26T02:07:51.392Z,99836.36
2018-09-26T02:08:23.010Z,99833.42
2018-09-26T02:08:54.605Z,99833.00
2018-09-26T02:09:26.246Z,99827.91
2018-09-26T02:09:57.832Z,99835.16
2018-09-26T02:10:29.438Z,99827.49
2018-09-26T02:11:01.042Z,99833.89
2018-09-26T02:11:32.636Z,99830.94
2018-09-26T02:12:04.238Z,99829.23
2018-09-26T02:12:35.815Z,99827.97
2018-09-26T02:13:07.422Z,99827.98
2018-09-26T02:13:39.091Z,99827.12
2018-09-26T02:14:10.698Z,99826.71
2018-09-26T02:14:42.295Z,99824.16
2018-09-26T02:15:13.905Z,99822.86
2018-09-26T02:15:45.511Z,99827.56
2018-09-26T02:16:17.118Z,99820.75
2018-09-26T02:16:48.715Z,99825.02
2018-09-26T02:17:20.324Z,99824.58
2018-09-26T02:17:51.926Z,99821.16
2018-09-26T02:18:23.521Z,99822.44
2018-09-26T02:18:55.154Z,99821.59
2018-09-26T02:19:26.744Z,99820.30
2018-09-26T02:19:58.428Z,99816.88
2018-09-26T02:20:30.074Z,99814.77
2018-09-26T02:21:01.655Z,99816.03
2018-09-26T02:21:33.259Z,99812.64
2018-09-26T02:22:04.866Z,99809.20
2018-09-26T02:22:36.446Z,99807.06
2018-09-26T02:23:08.056Z,99804.95
2018-09-26T02:23:39.692Z,99803.67
2018-09-26T02:24:11.283Z,99805.37
2018-09-26T02:24:42.930Z,99807.50
2018-09-26T02:25:14.534Z,99807.50
2018-09-26T02:25:46.128Z,99807.48
2018-09-26T02:26:17.734Z,99801.94
2018-09-26T02:26:49.328Z,99798.53
2018-09-26T02:27:20.920Z,99800.23
2018-09-26T02:27:52.522Z,99801.94
2018-09-26T02:28:24.116Z,99793.41
2018-09-26T02:28:55.763Z,99796.83
2018-09-26T02:29:27.371Z,99795.54
2018-09-26T02:29:58.969Z,99789.16
2018-09-26T02:30:30.616Z,99787.86
2018-09-26T02:31:02.253Z,99791.27
2018-09-26T02:31:33.843Z,99781.89
2018-09-26T02:32:05.430Z,99785.73
2018-09-26T02:32:37.035Z,99765.67
2018-09-26T02:33:08.637Z,99787.01
2018-09-26T02:33:40.216Z,99780.20
2018-09-26T02:34:11.812Z,99780.20
2018-09-26T02:34:43.415Z,99779.80
2018-09-26T02:35:15.048Z,99784.05
2018-09-26T02:35:46.636Z,99783.20
2018-09-26T02:36:18.287Z,99775.95
2018-09-26T02:36:49.884Z,99778.52
2018-09-26T02:37:21.489Z,99775.55
2018-09-26T02:37:53.120Z,99776.42
2018-09-26T02:38:24.700Z,99777.73
2018-09-26T02:38:56.306Z,99782.85
2018-09-26T02:39:27.902Z,99778.19
2018-09-26T02:39:59.503Z,99782.44
2018-09-26T02:40:31.088Z,99778.61
2018-09-26T02:41:02.734Z,99778.19
2018-09-26T02:41:34.338Z,99772.64
2018-09-26T02:42:05.947Z,99779.05
2018-09-26T02:42:37.558Z,99777.34
2018-09-26T02:43:09.148Z,99776.48
2018-09-26T02:43:40.726Z,99773.08
2018-09-26T02:44:12.330Z,99774.34
2018-09-26T02:44:43.921Z,99769.66
2018-09-26T02:45:15.566Z,99767.53
2018-09-26T02:45:47.160Z,99765.82
2018-09-26T02:46:18.803Z,99767.93
2018-09-26T02:46:50.405Z,99763.23
2018-09-26T02:47:22.010Z,99770.09
2018-09-26T02:47:53.614Z,99774.34
2018-09-26T02:48:25.199Z,99766.66
2018-09-26T02:48:56.797Z,99776.91
2018-09-26T02:49:28.404Z,99767.94
2018-09-26T02:49:59.982Z,99765.38
2018-09-26T02:50:31.581Z,99768.36
2018-09-26T02:51:03.176Z,99758.58
2018-09-26T02:51:34.779Z,99762.41
2018-09-26T02:52:06.414Z,99765.41
2018-09-26T02:52:38.065Z,99770.08
2018-09-26T02:53:09.681Z,99762.81
2018-09-26T02:53:41.275Z,99757.70
2018-09-26T02:54:12.869Z,99753.87
2018-09-26T02:54:44.450Z,99757.70
2018-09-26T02:55:16.027Z,99757.70
2018-09-26T02:55:47.626Z,99758.57
2018-09-26T02:56:19.236Z,99755.16
2018-09-26T02:56:50.828Z,99751.73
2018-09-26T02:57:22.415Z,99747.91
2018-09-26T02:57:54.005Z,99753.45
2018-09-26T02:58:25.600Z,99753.03
2018-09-26T02:58:57.201Z,99753.01
2018-09-26T02:59:28.788Z,99756.45
2018-09-26T03:00:00.390Z,99764.12
2018-09-26T03:00:31.993Z,99757.72
2018-09-26T03:01:03.576Z,99759.39
2018-09-26T03:01:35.168Z,99767.51
2018-09-26T03:02:06.774Z,99759.81
2018-09-26T03:02:38.358Z,99760.23
2018-09-26T03:03:09.998Z,99758.91
2018-09-26T03:03:41.594Z,99756.38
2018-09-26T03:04:13.207Z,99756.78
2018-09-26T03:04:44.801Z,99761.05
2018-09-26T03:05:16.406Z,99764.02
2018-09-26T03:05:48.000Z,99758.92
2018-09-26T03:06:19.588Z,99758.91
2018-09-26T03:06:51.235Z,99757.20
2018-09-26T03:07:22.829Z,99754.20
2018-09-26T03:07:54.438Z,99758.91
2018-09-26T03:08:26.055Z,99756.75
2018-09-26T03:08:57.634Z,99755.50
2018-09-26T03:09:29.292Z,99750.36
2018-09-26T03:10:00.888Z,99751.20
2018-09-26T03:10:32.509Z,99749.93
2018-09-26T03:11:04.363Z,99752.06
2018-09-26T03:11:36.251Z,99752.91
2018-09-26T03:12:07.915Z,99752.05
2018-09-26T03:12:39.744Z,99752.92
2018-09-26T03:13:11.639Z,99754.60
2018-09-26T03:13:43.537Z,99748.23
2018-09-26T03:14:15.202Z,99749.50
2018-09-26T03:14:46.946Z,99758.01
2018-09-26T03:15:18.578Z,99758.43
2018-09-26T03:15:50.182Z,99753.75
2018-09-26T03:16:21.830Z,99755.44
2018-09-26T03:16:53.424Z,99753.73
2018-09-26T03:17:25.072Z,99754.16
2018-09-26T03:17:56.659Z,99757.98
2018-09-26T03:18:28.266Z,99755.44
2018-09-26T03:18:59.875Z,99749.88
2018-09-26T03:19:31.512Z,99755.45
2018-09-26T03:20:03.108Z,99756.28
2018-09-26T03:20:34.741Z,99758.42
2018-09-26T03:21:06.336Z,99757.14
2018-09-26T03:21:37.926Z,99756.27
2018-09-26T03:22:09.520Z,99754.98
2018-09-26T03:22:41.126Z,99751.56
2018-09-26T03:23:12.717Z,99751.14
2018-09-26T03:23:44.308Z,99752.84
2018-09-26T03:24:15.896Z,99754.56
2018-09-26T03:24:47.509Z,99753.27
2018-09-26T03:25:19.160Z,99754.11
2018-09-26T03:25:50.738Z,99750.72
2018-09-26T03:26:22.333Z,99748.15
2018-09-26T03:26:53.925Z,99751.97
2018-09-26T03:27:25.572Z,99747.30
2018-09-26T03:27:57.142Z,99746.86
2018-09-26T03:28:28.737Z,99746.41
2018-09-26T03:29:00.344Z,99746.01
2018-09-26T03:29:31.937Z,99740.88
2018-09-26T03:30:03.553Z,99739.20
2018-09-26T03:30:35.199Z,99734.89
2018-09-26T03:31:06.882Z,99737.03
2018-09-26T03:31:38.455Z,99734.89
2018-09-26T03:32:10.052Z,99734.91
2018-09-26T03:32:41.644Z,99735.32
2018-09-26T03:33:13.225Z,99733.61
2018-09-26T03:33:44.875Z,99733.19
2018-09-26T03:34:16.452Z,99728.08
2018-09-26T03:34:48.054Z,99733.18
2018-09-26T03:35:19.648Z,99731.04
2018-09-26T03:35:51.256Z,99729.78
2018-09-26T03:36:22.902Z,99733.61
2018-09-26T03:36:54.497Z,99735.31
2018-09-26T03:37:26.096Z,99735.73
2018-09-26T03:37:57.674Z,99739.55
2018-09-26T03:38:29.316Z,99735.31
2018-09-26T03:39:00.904Z,99745.11
2018-09-26T03:39:32.506Z,99743.83
2018-09-26T03:40:04.111Z,99751.48
2018-09-26T03:40:35.714Z,99755.73
2018-09-26T03:41:07.318Z,99756.58
2018-09-26T03:41:38.906Z,99751.04
2018-09-26T03:42:10.506Z,99748.93
2018-09-26T03:42:42.083Z,99745.94
2018-09-26T03:43:13.670Z,99744.22
2018-09-26T03:43:45.301Z,99753.16
2018-09-26T03:44:16.950Z,99749.77
2018-09-26T03:44:48.555Z,99748.48
2018-09-26T03:45:20.143Z,99748.89
2018-09-26T03:45:51.735Z,99746.34
2018-09-26T03:46:23.332Z,99751.02
2018-09-26T03:46:54.924Z,99744.63
2018-09-26T03:47:26.527Z,99739.51
2018-09-26T03:47:58.160Z,99732.27
2018-09-26T03:48:29.771Z,99738.65
2018-09-26T03:49:01.405Z,99738.67
2018-09-26T03:49:33.006Z,99737.39
2018-09-26T03:50:04.604Z,99738.61
2018-09-26T03:50:36.198Z,99734.80
2018-09-26T03:51:07.783Z,99733.52
2018-09-26T03:51:39.376Z,99730.94
2018-09-26T03:52:10.984Z,99728.80
2018-09-26T03:52:42.595Z,99730.95
2018-09-26T03:53:14.190Z,99729.25
2018-09-26T03:53:45.807Z,99731.38
2018-09-26T03:54:17.441Z,99730.09
2018-09-26T03:54:49.028Z,99733.91
2018-09-26T03:55:20.630Z,99736.03
2018-09-26T03:55:52.222Z,99737.31
2018-09-26T03:56:23.861Z,99727.94
2018-09-26T03:56:55.443Z,99730.06
2018-09-26T03:57:27.046Z,99740.30
2018-09-26T03:57:58.636Z,99732.20
2018-09-26T03:58:30.243Z,99735.61
2018-09-26T03:59:01.846Z,99731.78
2018-09-26T03:59:33.441Z,99730.05
2018-09-26T04:00:05.024Z,99723.69
2018-09-26T04:00:36.625Z,99723.23
2018-09-26T04:01:08.252Z,99727.94
2018-09-26T04:01:39.859Z,99719.84
2018-09-26T04:02:11.452Z,99727.09
2018-09-26T04:02:43.056Z,99725.80
2018-09-26T04:03:14.656Z,99721.11
2018-09-26T04:03:46.248Z,99719.84
2018-09-26T04:04:17.850Z,99719.40
2018-09-26T04:04:49.475Z,99716.42
2018-09-26T04:05:21.091Z,99705.76
2018-09-26T04:05:52.694Z,99710.48
2018-09-26T04:06:24.284Z,99719.42
2018-09-26T04:06:56.140Z,99711.74
2018-09-26T04:07:27.771Z,99709.19
2018-09-26T04:07:59.368Z,99713.02
2018-09-26T04:08:30.952Z,99712.58
2018-09-26T04:09:02.598Z,99703.23
2018-09-26T04:09:34.197Z,99706.19
2018-09-26T04:10:05.775Z,99703.63
2018-09-26T04:10:37.382Z,99700.66
2018-09-26T04:11:08.977Z,99707.46
2018-09-26T04:11:40.620Z,99707.88
2018-09-26T04:12:12.232Z,99701.93
2018-09-26T04:12:43.906Z,99696.41
2018-09-26T04:13:15.430Z,99700.23
2018-09-26T04:13:47.024Z,99703.64
2018-09-26T04:14:18.616Z,99701.09
2018-09-26T04:14:50.216Z,99694.25
2018-09-26T04:15:21.823Z,99694.24
2018-09-26T04:15:53.430Z,99692.97
2018-09-26T04:16:25.038Z,99695.52
2018-09-26T04:16:56.680Z,99693.83
2018-09-26T04:17:28.276Z,99693.41
2018-09-26T04:17:59.872Z,99693.41
2018-09-26T04:18:31.468Z,99698.94
2018-09-26T04:19:03.065Z,99693.41
2018-09-26T04:19:34.677Z,99695.95
2018-09-26T04:20:06.269Z,99691.27
2018-09-26T04:20:37.875Z,99685.73
2018-09-26T04:21:09.469Z,99686.16
2018-09-26T04:21:41.119Z,99686.57
2018-09-26T04:22:12.729Z,99685.30
2018-09-26T04:22:44.341Z,99682.33
2018-09-26T04:23:15.946Z,99687.42
2018-09-26T04:23:47.538Z,99689.57
2018-09-26T04:24:19.160Z,99688.28
2018-09-26T04:24:50.756Z,99687.44
2018-09-26T04:25:22.349Z,99677.18
2018-09-26T04:25:53.955Z,99700.66
2018-09-26T04:26:25.671Z,99700.62
2018-09-26T04:26:57.374Z,99701.94
2018-09-26T04:27:28.965Z,99704.48
2018-09-26T04:28:00.465Z,99700.25
2018-09-26T04:28:32.069Z,99699.41
2018-09-26T04:29:03.681Z,99696.85
2018-09-26T04:29:35.283Z,99701.11
2018-09-26T04:30:06.910Z,99700.29
2018-09-26T04:30:38.512Z,99705.88
2018-09-26T04:31:10.158Z,99704.62
2018-09-26T04:31:41.762Z,99709.30
2018-09-26T04:32:13.357Z,99707.18
2018-09-26T04:32:45.100Z,99701.20
2018-09-26T04:33:16.987Z,99708.91
2018-09-26T04:33:48.275Z,99711.05
2018-09-26T04:34:19.875Z,99708.49
2018-09-26T04:34:51.468Z,99709.33
2018-09-26T04:35:23.065Z,99712.77
2018-09-26T04:35:54.670Z,99712.77
2018-09-26T04:36:26.282Z,99711.47
2018-09-26T04:36:57.877Z,99714.48
2018-09-26T04:37:29.613Z,99717.45
2018-09-26T04:38:01.209Z,99716.17
2018-09-26T04:38:32.854Z,99720.45
2018-09-26T04:39:04.422Z,99720.88
2018-09-26T04:39:36.006Z,99721.75
2018-09-26T04:40:07.601Z,99720.04
2018-09-26T04:40:39.203Z,99723.87
2018-09-26T04:41:10.798Z,99727.73
2018-09-26T04:41:42.428Z,99726.87
2018-09-26T04:42:14.038Z,99726.87
2018-09-26T04:42:45.646Z,99728.59
2018-09-26T04:43:17.335Z,99736.26
2018-09-26T04:43:48.886Z,99734.58
2018-09-26T04:44:20.480Z,99731.58
2018-09-26T04:44:52.066Z,99735.00
2018-09-26T04:45:23.667Z,99725.19
2018-09-26T04:45:55.260Z,99729.47
2018-09-26T04:46:26.848Z,99729.47
2018-09-26T04:46:58.426Z,99722.63
2018-09-26T04:47:30.025Z,99725.63
2018-09-26T04:48:01.664Z,99722.23
2018-09-26T04:48:33.246Z,99719.67
2018-09-26T04:49:04.841Z,99712.86
2018-09-26T04:49:36.446Z,99712.42
2018-09-26T04:50:08.051Z,99717.52
2018-09-26T04:50:39.695Z,99714.98
2018-09-26T04:51:11.295Z,99712.86
2018-09-26T04:51:42.903Z,99717.55
2018-09-26T04:52:14.496Z,99717.55
2018-09-26T04:52:46.089Z,99713.28
2018-09-26T04:53:17.735Z,99717.95
2018-09-26T04:53:49.314Z,99717.95
2018-09-26T04:54:20.909Z,99713.70
2018-09-26T04:54:52.522Z,99713.69
2018-09-26T04:55:24.136Z,99707.31
2018-09-26T04:55:55.715Z,99711.13
2018-09-26T04:56:27.315Z,99708.59
2018-09-26T04:56:58.908Z,99709.86
2018-09-26T04:57:30.533Z,99708.56
2018-09-26T04:58:02.245Z,99712.42
2018-09-26T04:58:33.761Z,99710.72
2018-09-26T04:59:05.371Z,99709.86
2018-09-26T04:59:36.978Z,99706.86
2018-09-26T05:00:08.573Z,99708.14
2018-09-26T05:00:40.187Z,99704.73
2018-09-26T05:01:11.776Z,99710.69
2018-09-26T05:01:43.379Z,99701.75
2018-09-26T05:02:14.968Z,99702.61
2018-09-26T05:02:46.588Z,99700.90
2018-09-26T05:03:18.185Z,99701.73
2018-09-26T05:03:49.772Z,99697.49
2018-09-26T05:04:21.386Z,99701.32
2018-09-26T05:04:52.999Z,99698.75
2018-09-26T05:05:24.588Z,99704.30
2018-09-26T05:05:56.166Z,99695.34
2018-09-26T05:06:27.761Z,99698.33
2018-09-26T05:06:59.346Z,99696.20
2018-09-26T05:07:30.958Z,99693.63
2018-09-26T05:08:02.534Z,99692.37
2018-09-26T05:08:34.124Z,99686.80
2018-09-26T05:09:05.717Z,99688.50
2018-09-26T05:09:37.346Z,99688.95
2018-09-26T05:10:08.937Z,99693.63
2018-09-26T05:10:40.528Z,99689.78
2018-09-26T05:11:12.116Z,99691.50
2018-09-26T05:11:43.721Z,99691.50
2018-09-26T05:12:15.326Z,99695.73
2018-09-26T05:12:46.921Z,99692.34
2018-09-26T05:13:18.529Z,99687.64
2018-09-26T05:13:50.135Z,99691.92
2018-09-26T05:14:21.747Z,99696.14
2018-09-26T05:14:53.394Z,99690.63
2018-09-26T05:15:24.984Z,99697.85
2018-09-26T05:15:56.594Z,99684.62
2018-09-26T05:16:28.201Z,99701.26
2018-09-26T05:16:59.789Z,99694.86
2018-09-26T05:17:31.426Z,99696.16
2018-09-26T05:18:03.034Z,99700.83
2018-09-26T05:18:34.642Z,99696.55
2018-09-26T05:19:06.253Z,99688.91
2018-09-26T05:19:37.854Z,99696.12
2018-09-26T05:20:09.449Z,99695.69
2018-09-26T05:20:41.090Z,99688.47
2018-09-26T05:21:12.684Z,99688.03
2018-09-26T05:21:44.262Z,99690.14
2018-09-26T05:22:15.860Z,99692.28
2018-09-26T05:22:47.508Z,99686.32
2018-09-26T05:23:19.073Z,99687.17
2018-09-26T05:23:50.670Z,99686.30
2018-09-26T05:24:22.278Z,99685.45
2018-09-26T05:24:53.882Z,99684.62
2018-09-26T05:25:25.517Z,99682.91
2018-09-26T05:25:57.123Z,99684.17
2018-09-26T05:26:28.704Z,99682.89
2018-09-26T05:27:00.296Z,99679.08
2018-09-26T05:27:31.888Z,99679.91
2018-09-26T05:28:03.481Z,99676.50
2018-09-26T05:28:35.098Z,99676.48
2018-09-26T05:29:06.726Z,99673.52
2018-09-26T05:29:38.323Z,99675.20
2018-09-26T05:30:09.975Z,99671.81
2018-09-26T05:30:41.562Z,99670.95
2018-09-26T05:31:13.153Z,99671.38
2018-09-26T05:31:44.755Z,99673.50
2018-09-26T05:32:16.344Z,99667.97
2018-09-26T05:32:47.979Z,99669.23
2018-09-26T05:33:19.607Z,99673.87
2018-09-26T05:33:51.210Z,99670.03
2018-09-26T05:34:22.809Z,99671.32
2018-09-26T05:34:54.405Z,99673.45
2018-09-26T05:35:25.996Z,99670.88
2018-09-26T05:35:57.599Z,99667.50
2018-09-26T05:36:29.200Z,99673.87
2018-09-26T05:37:00.788Z,99673.87
2018-09-26T05:37:32.422Z,99667.46
2018-09-26T05:38:04.008Z,99673.87
2018-09-26T05:38:35.590Z,99670.45
2018-09-26T05:39:07.223Z,99675.98
2018-09-26T05:39:38.794Z,99673.84
2018-09-26T05:40:10.373Z,99673.44
2018-09-26T05:40:42.013Z,99670.02
2018-09-26T05:41:13.612Z,99672.98
2018-09-26T05:41:45.335Z,99668.74
2018-09-26T05:42:16.855Z,99672.14
2018-09-26T05:42:48.504Z,99673.84
2018-09-26T05:43:20.150Z,99676.81
2018-09-26T05:43:51.751Z,99678.95
2018-09-26T05:44:23.330Z,99681.52
2018-09-26T05:44:54.925Z,99681.48
2018-09-26T05:45:26.521Z,99686.16
2018-09-26T05:45:58.117Z,99685.76
2018-09-26T05:46:29.709Z,99689.58
2018-09-26T05:47:01.337Z,99685.74
2018-09-26T05:47:32.978Z,99684.45
2018-09-26T05:48:04.573Z,99687.42
2018-09-26T05:48:36.157Z,99682.34
2018-09-26T05:49:07.744Z,99684.03
2018-09-26T05:49:39.325Z,99684.45
2018-09-26T05:50:10.959Z,99684.45
2018-09-26T05:50:42.550Z,99677.62
2018-09-26T05:51:14.136Z,99672.96
2018-09-26T05:51:45.785Z,99678.07
2018-09-26T05:52:17.380Z,99675.50
2018-09-26T05:52:48.972Z,99672.52
2018-09-26T05:53:20.635Z,99671.23
2018-09-26T05:53:52.228Z,99669.97
2018-09-26T05:54:23.825Z,99674.20
2018-09-26T05:54:55.430Z,99665.28
2018-09-26T05:55:27.015Z,99665.28
2018-09-26T05:55:58.658Z,99674.20
2018-09-26T05:56:30.244Z,99670.36
2018-09-26T05:57:01.819Z,99670.78
2018-09-26T05:57:33.408Z,99667.83
2018-09-26T05:58:04.990Z,99663.98
2018-09-26T05:58:36.580Z,99661.84
2018-09-26T05:59:08.187Z,99665.68
2018-09-26T05:59:39.791Z,99667.39
2018-09-26T06:00:11.387Z,99667.79
2018-09-26T06:00:43.020Z,99670.34
2018-09-26T06:01:14.626Z,99666.09
2018-09-26T06:01:46.230Z,99674.20
2018-09-26T06:02:17.864Z,99673.75
2018-09-26T06:02:49.452Z,99668.66
2018-09-26T06:03:21.048Z,99674.61
2018-09-26T06:03:52.654Z,99675.46
2018-09-26T06:04:24.255Z,99666.09
2018-09-26T06:04:55.889Z,99666.94
2018-09-26T06:05:27.500Z,99667.78
2018-09-26T06:05:59.091Z,99661.82
2018-09-26T06:06:30.687Z,99658.87
2018-09-26T06:07:02.295Z,99658.87
2018-09-26T06:07:33.931Z,99653.76
2018-09-26T06:08:05.511Z,99660.98
2018-09-26T06:08:37.155Z,99659.70
2018-09-26T06:09:08.793Z,99650.75
2018-09-26T06:09:40.389Z,99653.73
2018-09-26T06:10:11.989Z,99657.14
2018-09-26T06:10:43.585Z,99651.61
2018-09-26T06:11:15.176Z,99656.73